Time;durP1;ratioP1;P1;durP2;ratioP2;P2;SDS_P1;SDS_P2;PMS_P1;PMS_P2;Temp;Humidity;BMP_temperature;BMP_pressure;BME280_temperature;BME280_humidity;BME280_pressure;Samples;Min_cycle;Max_cycle;Signal;HPM_P1;HPM_P2
2021/06/06 00:00:50;;;;;;;;;;;;;;;17.66;58.74;97205.94;5040129;28;19953;-62
2021/06/06 00:03:27;;;;;;;;;;;;;;;17.65;58.92;97206.94;5040127;28;19929;-62
2021/06/06 00:05:55;;;;;;;;;;;;;;;17.65;58.87;97208.75;5041483;28;20346;-62
2021/06/06 00:08:22;;;;;;;;;;;;;;;17.64;59.03;97207.94;5039081;28;20277;-61
2021/06/06 00:10:49;;;;;;;;;;;;;;;17.65;58.95;97209.59;5040965;28;20381;-62
2021/06/06 00:13:16;;;;;;;;;;;;;;;17.64;58.88;97202.69;5039408;28;19925;-62
2021/06/06 00:15:44;;;;;;;;;;;;;;;17.65;58.85;97204.31;5041286;28;19939;-62
2021/06/06 00:18:11;;;;;;;;;;;;;;;17.64;58.79;97200.03;5042946;28;19967;-62
2021/06/06 00:20:38;;;;;;;;;;;;;;;17.64;58.84;97196.63;5045861;28;20012;-62
2021/06/06 00:23:05;;;;;;;;;;;;;;;17.64;58.94;97202.69;5046644;28;19936;-62
2021/06/06 00:25:32;;;;;;;;;;;;;;;17.64;58.81;97200.03;5043872;28;19961;-62
2021/06/06 00:27:59;;;;;;;;;;;;;;;17.65;58.77;97199.06;5043471;28;19944;-62
2021/06/06 00:30:26;;;;;;;;;;;;;;;17.64;58.91;97196.63;5046224;28;19925;-62
2021/06/06 00:32:53;;;;;;;;;;;;;;;17.65;58.87;97192.94;5042111;28;19925;-62
2021/06/06 00:35:19;;;;;;;;;;;;;;;17.66;58.95;97189.31;5043589;28;19924;-62
2021/06/06 00:37:46;;;;;;;;;;;;;;;17.65;58.90;97187.69;5044798;28;19924;-62
2021/06/06 00:40:17;;;;;;;;;;;;;;;17.64;59.00;97192.16;5043763;28;19931;-62
2021/06/06 00:42:44;;;;;;;;;;;;;;;17.64;58.88;97186.09;5043791;28;20332;-62
2021/06/06 00:45:13;;;;;;;;;;;;;;;17.64;59.12;97186.88;5041857;28;19929;-62
2021/06/06 00:47:42;;;;;;;;;;;;;;;17.64;58.96;97189.50;5042688;28;20376;-62
2021/06/06 00:50:13;;;;;;;;;;;;;;;17.64;59.00;97186.88;5043648;28;19925;-62
2021/06/06 00:52:41;;;;;;;;;;;;;;;17.65;59.00;97182.41;5043247;28;20012;-62
2021/06/06 00:55:08;;;;;;;;;;;;;;;17.65;59.04;97178.00;5042190;28;20427;-61
2021/06/06 00:57:38;;;;;;;;;;;;;;;17.64;58.84;97178.97;5042756;28;19960;-62
2021/06/06 01:00:12;;;;;;;;;;;;;;;17.64;58.98;97172.91;5041327;28;19935;-62
2021/06/06 01:02:45;;;;;;;;;;;;;;;17.64;58.87;97173.72;5047770;28;19925;-62
2021/06/06 01:05:25;;;;;;;;;;;;;;;17.64;58.96;97167.66;5042590;28;19932;-62
2021/06/06 01:07:54;;;;;;;;;;;;;;;17.64;58.79;97165.03;5044223;28;20443;-62
2021/06/06 01:10:22;;;;;;;;;;;;;;;17.64;59.04;97171.09;5043377;28;20024;-62
2021/06/06 01:13:05;;;;;;;;;;;;;;;17.65;59.02;97170.09;5041550;28;19959;-62
2021/06/06 01:15:46;;;;;;;;;;;;;;;17.65;58.88;97174.53;5043421;28;19929;-62
2021/06/06 01:18:24;;;;;;;;;;;;;;;17.65;58.93;97167.47;5042899;28;20003;-62
2021/06/06 01:20:53;;;;;;;;;;;;;;;17.64;58.89;97155.28;5041358;28;20038;-62
2021/06/06 01:23:35;;;;;;;;;;;;;;;17.64;58.92;97160.56;5035514;28;19928;-62
2021/06/06 01:26:08;;;;;;;;;;;;;;;17.64;59.07;97157.94;5042083;28;20008;-62
2021/06/06 01:28:56;;;;;;;;;;;;;;;17.63;59.11;97145.78;5045478;28;20297;-62
2021/06/06 01:31:23;;;;;;;;;;;;;;;17.65;58.92;97150.84;5044155;28;20016;-62
2021/06/06 01:33:54;;;;;;;;;;;;;;;17.65;59.06;97149.03;5039735;28;20255;-62
2021/06/06 01:36:23;;;;;;;;;;;;;;;17.64;58.95;97144.75;5043699;28;19933;-61
2021/06/06 01:38:56;;;;;;;;;;;;;;;17.64;58.98;97142.13;5043952;28;19925;-62
2021/06/06 01:41:33;;;;;;;;;;;;;;;17.65;59.05;97145.56;5045116;28;19924;-62
2021/06/06 01:44:04;;;;;;;;;;;;;;;17.64;59.06;97143.97;5039881;28;19928;-62
2021/06/06 01:46:36;;;;;;;;;;;;;;;17.64;59.10;97144.75;5019377;28;19940;-62
2021/06/06 01:49:07;;;;;;;;;;;;;;;17.64;59.12;97138.69;5041634;28;19999;-62
2021/06/06 01:51:38;;;;;;;;;;;;;;;17.65;59.09;97142.94;5043649;28;19929;-63
2021/06/06 01:54:09;;;;;;;;;;;;;;;17.64;59.02;97139.50;5039048;28;20383;-62
2021/06/06 01:56:38;;;;;;;;;;;;;;;17.63;59.12;97130.00;5039246;28;20391;-62
2021/06/06 01:59:11;;;;;;;;;;;;;;;17.65;59.04;97130.59;5038932;28;19936;-62
2021/06/06 02:01:45;;;;;;;;;;;;;;;17.65;59.01;97135.03;5042470;28;19975;-62
2021/06/06 02:04:12;;;;;;;;;;;;;;;17.64;59.12;97136.88;5040984;28;19937;-62
2021/06/06 02:06:48;;;;;;;;;;;;;;;17.64;58.92;97123.69;5044003;28;19974;-62
2021/06/06 02:09:23;;;;;;;;;;;;;;;17.64;59.11;97138.69;5041129;28;19933;-62
2021/06/06 02:12:05;;;;;;;;;;;;;;;17.64;59.00;97122.91;5040815;28;20413;-62
2021/06/06 02:14:44;;;;;;;;;;;;;;;17.64;59.03;97138.69;5041869;28;19932;-62
2021/06/06 02:17:25;;;;;;;;;;;;;;;17.64;59.03;97142.13;5042464;28;19929;-62
2021/06/06 02:19:59;;;;;;;;;;;;;;;17.63;59.12;97132.63;5037306;28;19933;-62
2021/06/06 02:22:28;;;;;;;;;;;;;;;17.63;59.06;97130.00;5042009;28;19924;-62
2021/06/06 02:24:54;;;;;;;;;;;;;;;17.64;58.88;97128.97;5042534;28;19933;-62
2021/06/06 02:27:22;;;;;;;;;;;;;;;17.63;59.07;97130.00;5041379;28;19964;-62
2021/06/06 02:29:56;;;;;;;;;;;;;;;17.64;59.06;97142.13;5038977;28;19940;-62
2021/06/06 02:32:37;;;;;;;;;;;;;;;17.64;59.18;97139.50;5038639;28;19929;-62
2021/06/06 02:35:14;;;;;;;;;;;;;;;17.64;58.97;97133.44;5041633;28;19932;-62
2021/06/06 02:38:05;;;;;;;;;;;;;;;17.63;59.11;97135.25;5042078;28;19936;-62
2021/06/06 02:40:39;;;;;;;;;;;;;;;17.63;59.11;97130.00;5039018;28;20016;-62
2021/06/06 02:43:11;;;;;;;;;;;;;;;17.63;59.11;97132.63;5041558;28;19979;-62
2021/06/06 02:45:39;;;;;;;;;;;;;;;17.63;59.16;97132.63;5044825;28;19978;-62
2021/06/06 02:48:27;;;;;;;;;;;;;;;17.64;59.08;97134.22;5040227;28;20395;-62
2021/06/06 02:51:00;;;;;;;;;;;;;;;17.63;59.05;97143.16;5041233;28;19940;-62
2021/06/06 02:53:31;;;;;;;;;;;;;;;17.64;59.11;97142.13;5039614;28;19932;-61
2021/06/06 02:56:01;;;;;;;;;;;;;;;17.63;58.93;97132.63;5038398;28;19929;-62
2021/06/06 02:58:35;;;;;;;;;;;;;;;17.63;59.14;97137.91;5033810;28;19929;-62
2021/06/06 03:01:06;;;;;;;;;;;;;;;17.64;59.17;97136.88;5043519;28;19935;-62
2021/06/06 03:03:38;;;;;;;;;;;;;;;17.64;59.11;97138.69;5041002;28;19933;-62
2021/06/06 03:06:23;;;;;;;;;;;;;;;17.62;58.96;97138.88;5039559;28;19924;-62
2021/06/06 03:08:51;;;;;;;;;;;;;;;17.64;59.12;97139.50;5034638;28;19987;-62
2021/06/06 03:11:19;;;;;;;;;;;;;;;17.62;59.14;97141.53;5039529;28;21013;-61
2021/06/06 03:13:50;;;;;;;;;;;;;;;17.63;59.03;97137.91;5042692;28;20320;-62
2021/06/06 03:16:18;;;;;;;;;;;;;;;17.63;59.17;97143.16;5040493;28;20024;-62
2021/06/06 03:18:54;;;;;;;;;;;;;;;17.64;59.15;97133.44;5032051;28;19925;-62
2021/06/06 03:21:24;;;;;;;;;;;;;;;17.63;59.07;97126.53;5040490;28;19931;-62
2021/06/06 03:23:57;;;;;;;;;;;;;;;17.64;59.22;97136.06;5043247;28;19929;-62
2021/06/06 03:26:24;;;;;;;;;;;;;;;17.63;59.09;97137.06;5040105;28;19968;-62
2021/06/06 03:28:56;;;;;;;;;;;;;;;17.64;59.05;97128.16;5038051;28;19933;-62
2021/06/06 03:31:28;;;;;;;;;;;;;;;17.63;59.06;97135.25;5040662;28;19933;-62
2021/06/06 03:33:59;;;;;;;;;;;;;;;17.63;59.20;97135.25;5042772;28;19936;-62
2021/06/06 03:36:55;;;;;;;;;;;;;;;17.63;59.05;97137.06;5041422;28;21588;-62
2021/06/06 03:39:39;;;;;;;;;;;;;;;17.63;59.09;97132.63;5042034;28;19948;-62
2021/06/06 03:42:11;;;;;;;;;;;;;;;17.62;59.24;97138.88;5038680;28;19933;-62
2021/06/06 03:44:43;;;;;;;;;;;;;;;17.63;58.96;97134.44;5033598;28;19939;-61
2021/06/06 03:47:10;;;;;;;;;;;;;;;17.63;59.11;97135.25;5040885;28;19925;-62
2021/06/06 03:49:36;;;;;;;;;;;;;;;17.64;59.15;97138.69;5039920;28;19944;-62
2021/06/06 03:52:04;;;;;;;;;;;;;;;17.63;59.13;97129.16;5036074;28;20015;-62
2021/06/06 03:54:32;;;;;;;;;;;;;;;17.63;59.15;97131.78;5040962;28;20289;-62
2021/06/06 03:56:59;;;;;;;;;;;;;;;17.63;59.32;97130.00;5041649;28;19960;-62
2021/06/06 03:59:29;;;;;;;;;;;;;;;17.62;59.14;97136.25;5039241;28;19960;-62
2021/06/06 04:01:56;;;;;;;;;;;;;;;17.62;59.09;97131.00;5041264;28;19939;-62
2021/06/06 04:04:26;;;;;;;;;;;;;;;17.63;59.11;97134.44;5040011;28;19925;-62
2021/06/06 04:06:53;;;;;;;;;;;;;;;17.63;59.17;97130.00;5040373;28;19932;-62
2021/06/06 04:09:21;;;;;;;;;;;;;;;17.63;59.14;97126.53;5042535;28;19929;-62
2021/06/06 04:11:47;;;;;;;;;;;;;;;17.64;59.28;97128.16;5040558;28;20282;-62
2021/06/06 04:14:18;;;;;;;;;;;;;;;17.64;59.03;97130.81;5039711;28;20369;-62
2021/06/06 04:16:52;;;;;;;;;;;;;;;17.64;59.14;97126.34;5038946;28;20387;-62
2021/06/06 04:19:21;;;;;;;;;;;;;;;17.65;59.12;97127.97;5038138;28;19975;-62
2021/06/06 04:21:47;;;;;;;;;;;;;;;17.63;59.05;97119.47;5040200;28;19974;-62
2021/06/06 04:24:14;;;;;;;;;;;;;;;17.64;59.08;97126.34;5038696;28;19975;-61
2021/06/06 04:26:45;;;;;;;;;;;;;;;17.64;59.02;97128.97;5039508;28;19925;-62
2021/06/06 04:29:14;;;;;;;;;;;;;;;17.64;59.08;97128.97;5039989;28;19936;-61
2021/06/06 04:31:42;;;;;;;;;;;;;;;17.65;59.21;97130.59;5040551;28;19967;-62
2021/06/06 04:34:16;;;;;;;;;;;;;;;17.65;59.03;97121.88;5039207;28;20381;-62
2021/06/06 04:36:47;;;;;;;;;;;;;;;17.65;59.21;97130.59;5041852;28;20015;-62
2021/06/06 04:39:17;;;;;;;;;;;;;;;17.65;59.03;97133.25;5036637;28;19933;-62
2021/06/06 04:41:45;;;;;;;;;;;;;;;17.64;58.95;97128.97;5041136;28;20511;-62
2021/06/06 04:44:12;;;;;;;;;;;;;;;17.65;59.01;97133.25;5037626;28;19999;-62
2021/06/06 04:46:39;;;;;;;;;;;;;;;17.65;59.19;97125.34;5042648;28;19928;-62
2021/06/06 04:49:09;;;;;;;;;;;;;;;17.65;58.98;97130.59;5040215;28;19929;-62
2021/06/06 04:51:36;;;;;;;;;;;;;;;17.66;58.98;97131.41;5037899;28;19933;-61
2021/06/06 04:54:11;;;;;;;;;;;;;;;17.65;59.08;97141.13;5037474;28;19968;-62
2021/06/06 04:56:38;;;;;;;;;;;;;;;17.66;59.19;97131.41;5040077;28;19929;-62
2021/06/06 04:59:07;;;;;;;;;;;;;;;17.65;59.04;97130.59;5041094;28;20362;-62
2021/06/06 05:01:34;;;;;;;;;;;;;;;17.66;59.08;97137.47;5039981;28;20019;-62
2021/06/06 05:04:07;;;;;;;;;;;;;;;17.67;58.99;97135.66;5047650;28;20255;-61
2021/06/06 05:06:35;;;;;;;;;;;;;;;17.66;59.12;97137.47;5045409;28;19935;-62
2021/06/06 05:09:06;;;;;;;;;;;;;;;17.66;59.09;97131.41;5042294;28;20019;-62
2021/06/06 05:11:34;;;;;;;;;;;;;;;17.65;59.04;97129.78;5044512;28;19925;-62
2021/06/06 05:14:03;;;;;;;;;;;;;;;17.65;59.04;97130.59;5041885;28;19929;-62
2021/06/06 05:16:31;;;;;;;;;;;;;;;17.67;59.10;97136.47;5041661;28;20273;-62
2021/06/06 05:19:00;;;;;;;;;;;;;;;17.66;58.92;97132.22;5041442;28;20627;-62
2021/06/06 05:21:29;;;;;;;;;;;;;;;17.66;59.16;97137.47;5042836;28;19929;-62
2021/06/06 05:23:59;;;;;;;;;;;;;;;17.66;59.22;97136.66;5044330;28;19933;-62
2021/06/06 05:26:25;;;;;;;;;;;;;;;17.66;59.02;97132.22;5043494;28;19928;-62
2021/06/06 05:28:52;;;;;;;;;;;;;;;17.66;59.20;97137.47;5039807;28;19972;-62
2021/06/06 05:31:19;;;;;;;;;;;;;;;17.66;59.24;97137.47;5043842;28;20385;-62
2021/06/06 05:33:46;;;;;;;;;;;;;;;17.66;59.20;97136.66;5043387;28;19925;-62
2021/06/06 05:36:13;;;;;;;;;;;;;;;17.67;59.18;97143.53;5045243;28;19929;-62
2021/06/06 05:38:40;;;;;;;;;;;;;;;17.67;59.18;97140.91;5044371;28;19936;-62
2021/06/06 05:41:07;;;;;;;;;;;;;;;17.66;59.28;97141.94;5040919;28;19935;-62
2021/06/06 05:43:35;;;;;;;;;;;;;;;17.66;59.18;97137.47;5041402;28;19994;-62
2021/06/06 05:46:02;;;;;;;;;;;;;;;17.66;59.24;97141.94;5043923;28;19932;-62
2021/06/06 05:48:29;;;;;;;;;;;;;;;17.66;59.21;97136.66;5041657;28;19936;-61
2021/06/06 05:50:58;;;;;;;;;;;;;;;17.65;59.12;97140.31;5043253;28;19932;-63
2021/06/06 05:53:47;;;;;;;;;;;;;;;17.64;59.29;97144.75;5044080;28;20008;-62
2021/06/06 05:56:13;;;;;;;;;;;;;;;17.63;59.08;97147.59;5039679;28;19929;-62
2021/06/06 05:58:40;;;;;;;;;;;;;;;17.59;59.51;97138.47;5044643;28;20393;-62
2021/06/06 06:01:07;;;;;;;;;;;;;;;17.49;59.81;97144.94;5044232;28;19935;-62
2021/06/06 06:03:34;;;;;;;;;;;;;;;17.46;59.89;97131.38;5043684;28;19925;-63
2021/06/06 06:06:02;;;;;;;;;;;;;;;17.44;59.83;97136.88;5041546;28;20372;-62
2021/06/06 06:08:30;;;;;;;;;;;;;;;17.42;59.65;97138.88;5043631;28;20023;-62
2021/06/06 06:11:08;;;;;;;;;;;;;;;17.42;59.86;97132.78;5043914;28;19972;-62
2021/06/06 06:13:34;;;;;;;;;;;;;;;17.42;59.73;97135.41;5041013;28;20395;-62
2021/06/06 06:16:02;;;;;;;;;;;;;;;17.41;59.60;97134.63;5043818;28;20342;-62
2021/06/06 06:18:30;;;;;;;;;;;;;;;17.42;59.65;97127.53;5039168;28;20011;-61
2021/06/06 06:20:57;;;;;;;;;;;;;;;17.42;59.56;97135.41;5039100;28;20365;-62
2021/06/06 06:23:23;;;;;;;;;;;;;;;17.41;59.63;97124.09;5043143;28;19925;-62
2021/06/06 06:25:50;;;;;;;;;;;;;;;17.44;59.53;97125.50;5040737;28;19929;-63
2021/06/06 06:28:17;;;;;;;;;;;;;;;17.42;59.63;97122.25;5043079;28;19951;-63
2021/06/06 06:30:57;;;;;;;;;;;;;;;17.43;59.55;97129.97;5043966;28;19933;-64
2021/06/06 06:33:32;;;;;;;;;;;;;;;17.44;59.58;97117.59;5044567;28;20323;-63
2021/06/06 06:35:59;;;;;;;;;;;;;;;17.45;59.76;97124.50;5045755;28;20357;-63
2021/06/06 06:38:27;;;;;;;;;;;;;;;17.45;59.62;97127.13;5044606;28;20380;-63
2021/06/06 06:40:53;;;;;;;;;;;;;;;17.46;59.47;97126.09;5045724;28;20447;-64
2021/06/06 06:43:20;;;;;;;;;;;;;;;17.45;59.69;97122.69;5043940;28;19929;-65
2021/06/06 06:45:46;;;;;;;;;;;;;;;17.45;59.60;97125.31;5045379;28;19929;-64
2021/06/06 06:48:15;;;;;;;;;;;;;;;17.46;59.52;97126.09;5043325;28;19951;-64
2021/06/06 06:50:42;;;;;;;;;;;;;;;17.46;59.66;97126.94;5044253;28;19932;-65
2021/06/06 06:53:08;;;;;;;;;;;;;;;17.46;59.65;97124.31;5040369;28;20435;-63
2021/06/06 06:55:35;;;;;;;;;;;;;;;17.45;59.64;97119.25;5044521;28;19933;-63
2021/06/06 06:58:03;;;;;;;;;;;;;;;17.45;59.75;97124.50;5043339;28;19933;-62
2021/06/06 07:00:34;;;;;;;;;;;;;;;17.47;59.62;97130.38;5046373;28;19932;-63
2021/06/06 07:03:04;;;;;;;;;;;;;;;17.46;59.60;97128.75;5036447;28;19968;-63
2021/06/06 07:05:31;;;;;;;;;;;;;;;17.47;59.71;97125.13;5039038;28;19979;-63
2021/06/06 07:07:57;;;;;;;;;;;;;;;17.46;59.60;97126.09;5042888;28;19929;-63
2021/06/06 07:10:27;;;;;;;;;;;;;;;17.46;59.55;97124.31;5043362;28;20014;-63
2021/06/06 07:12:53;;;;;;;;;;;;;;;17.46;59.52;97126.09;5041156;28;19933;-62
2021/06/06 07:15:20;;;;;;;;;;;;;;;17.50;59.57;97130.81;5042308;28;19928;-66
2021/06/06 07:17:47;;;;;;;;;;;;;;;17.51;59.39;97123.69;5038378;28;19928;-63
2021/06/06 07:20:15;;;;;;;;;;;;;;;17.49;59.52;97131.00;5040520;28;19940;-63
2021/06/06 07:22:42;;;;;;;;;;;;;;;17.48;59.53;97135.44;5041371;28;19929;-65
2021/06/06 07:25:09;;;;;;;;;;;;;;;17.47;59.60;97127.75;5041544;28;19928;-63
2021/06/06 07:27:39;;;;;;;;;;;;;;;17.47;59.58;97125.91;5041516;28;20009;-64
2021/06/06 07:30:07;;;;;;;;;;;;;;;17.47;59.53;97119.84;5041183;28;19933;-63
2021/06/06 07:32:33;;;;;;;;;;;;;;;17.47;59.58;97125.13;5040630;28;21148;-63
2021/06/06 07:35:02;;;;;;;;;;;;;;;17.47;59.64;97127.75;5035572;28;19932;-64
2021/06/06 07:37:32;;;;;;;;;;;;;;;17.47;59.53;97117.22;5038864;28;19935;-63
2021/06/06 07:39:58;;;;;;;;;;;;;;;17.51;59.34;97118.44;5038024;28;19929;-64
2021/06/06 07:42:25;;;;;;;;;;;;;;;17.57;58.96;97120.28;5041335;28;19928;-64
2021/06/06 07:44:51;;;;;;;;;;;;;;;17.61;59.07;97118.84;5038078;28;19975;-63
2021/06/06 07:47:18;;;;;;;;;;;;;;;17.61;59.01;97128.56;5038127;28;20387;-63
2021/06/06 07:49:44;;;;;;;;;;;;;;;17.61;58.94;97116.22;5041441;28;20301;-63
2021/06/06 07:52:11;;;;;;;;;;;;;;;17.60;58.94;97122.47;5040638;28;19933;-64
2021/06/06 07:54:37;;;;;;;;;;;;;;;17.60;59.03;97119.84;5043187;28;19970;-64
2021/06/06 07:57:04;;;;;;;;;;;;;;;17.62;58.93;97119.66;5040667;28;20269;-64
2021/06/06 07:59:33;;;;;;;;;;;;;;;17.60;59.17;97119.84;5041155;28;20027;-64
2021/06/06 08:02:00;;;;;;;;;;;;;;;17.60;59.16;97116.41;5042172;28;19932;-64
2021/06/06 08:04:26;;;;;;;;;;;;;;;17.56;59.13;97121.25;5033900;28;19925;-64
2021/06/06 08:06:53;;;;;;;;;;;;;;;17.53;59.25;97126.94;5040116;28;19931;-64
2021/06/06 08:09:20;;;;;;;;;;;;;;;17.54;59.54;97127.75;5040678;28;20404;-64
2021/06/06 08:11:46;;;;;;;;;;;;;;;17.61;59.25;97126.75;5042875;28;19933;-63
2021/06/06 08:14:13;;;;;;;;;;;;;;;17.66;59.55;97129.56;5037228;28;19937;-64
2021/06/06 08:16:40;;;;;;;;;;;;;;;17.67;59.64;97125.94;5035819;28;19928;-64
2021/06/06 08:19:07;;;;;;;;;;;;;;;17.69;59.25;97126.56;5039907;28;19968;-63
2021/06/06 08:21:37;;;;;;;;;;;;;;;17.67;59.35;97133.84;5042123;28;19924;-63
2021/06/06 08:24:05;;;;;;;;;;;;;;;17.67;59.15;97131.22;5037174;28;20289;-63
2021/06/06 08:26:32;;;;;;;;;;;;;;;17.69;59.03;97131.00;5040944;28;19939;-63
2021/06/06 08:28:58;;;;;;;;;;;;;;;17.69;59.12;97142.34;5039911;28;20051;-64
2021/06/06 08:31:26;;;;;;;;;;;;;;;17.67;59.25;97128.59;5041514;28;19932;-63
2021/06/06 08:33:54;;;;;;;;;;;;;;;17.69;59.22;97131.00;5041240;28;19933;-63
2021/06/06 08:36:32;;;;;;;;;;;;;;;17.58;59.50;97127.13;5044694;28;19935;-64
2021/06/06 08:38:59;;;;;;;;;;;;;;;17.49;59.70;97131.78;5045451;28;19933;-63
2021/06/06 08:41:44;;;;;;;;;;;;;;;17.49;59.84;97136.25;5048743;28;19940;-63
2021/06/06 08:44:15;;;;;;;;;;;;;;;17.48;59.74;97138.09;5046535;28;19951;-63
2021/06/06 08:47:08;;;;;;;;;;;;;;;17.48;59.88;97131.97;5039771;28;19929;-64
2021/06/06 08:49:48;;;;;;;;;;;;;;;17.47;59.80;97127.75;5046964;28;19938;-64
2021/06/06 08:52:27;;;;;;;;;;;;;;;17.47;59.75;97127.75;5044290;28;19929;-64
2021/06/06 08:55:01;;;;;;;;;;;;;;;17.47;59.73;97127.75;5044653;28;19936;-64
2021/06/06 08:57:33;;;;;;;;;;;;;;;17.47;59.74;97127.75;5042363;28;20393;-64
2021/06/06 09:00:02;;;;;;;;;;;;;;;17.46;59.68;97128.75;5046419;28;21352;-65
2021/06/06 09:02:34;;;;;;;;;;;;;;;17.46;59.88;97129.56;5050884;28;19925;-64
2021/06/06 09:05:03;;;;;;;;;;;;;;;17.46;59.82;97134.00;5041569;28;19929;-64
2021/06/06 09:07:39;;;;;;;;;;;;;;;17.46;59.84;97132.22;5036604;28;20024;-63
2021/06/06 09:10:10;;;;;;;;;;;;;;;17.48;59.57;97134.63;5040073;28;20285;-63
2021/06/06 09:12:37;;;;;;;;;;;;;;;17.59;59.48;97125.31;5038245;28;20353;-63
2021/06/06 09:15:05;;;;;;;;;;;;;;;17.63;59.22;97127.38;5042868;28;20533;-64
2021/06/06 09:17:41;;;;;;;;;;;;;;;17.64;59.12;97126.34;5041266;28;20501;-64
2021/06/06 09:20:21;;;;;;;;;;;;;;;17.66;59.12;97132.22;5044139;28;20466;-64
2021/06/06 09:22:48;;;;;;;;;;;;;;;17.65;59.02;97133.25;5042035;28;20635;-64
2021/06/06 09:25:27;;;;;;;;;;;;;;;17.65;59.12;97127.97;5044457;28;19939;-66
2021/06/06 09:31:46;;;;;;;;;;;;;;;17.60;59.45;97125.13;5035991;28;19928;-64
2021/06/06 09:34:22;;;;;;;;;;;;;;;17.60;59.45;97119.84;5048078;28;19944;-64
2021/06/06 09:37:03;;;;;;;;;;;;;;;17.58;59.55;97118.44;5045159;28;19925;-64
2021/06/06 09:39:31;;;;;;;;;;;;;;;17.59;59.29;97120.88;5045980;28;19932;-64
2021/06/06 09:41:58;;;;;;;;;;;;;;;17.66;59.23;97119.03;5044106;28;19982;-63
2021/06/06 09:44:29;;;;;;;;;;;;;;;17.59;59.47;97115.63;5035568;28;19982;-64
2021/06/06 09:47:00;;;;;;;;;;;;;;;17.66;59.19;97121.69;5043255;28;19932;-64
2021/06/06 09:49:46;;;;;;;;;;;;;;;17.66;59.12;97116.41;5037991;28;19925;-64
2021/06/06 09:52:15;;;;;;;;;;;;;;;17.72;58.78;97120.06;5042635;28;19933;-63
2021/06/06 09:54:45;;;;;;;;;;;;;;;17.69;59.33;97123.94;5037359;28;20418;-63
2021/06/06 09:57:19;;;;;;;;;;;;;;;17.79;59.54;97120.06;5036189;28;19960;-65
2021/06/06 09:59:45;;;;;;;;;;;;;;;17.76;59.16;97116.03;5034473;28;19929;-64
2021/06/06 10:02:12;;;;;;;;;;;;;;;17.67;59.26;97115.41;5058694;28;20447;-64
2021/06/06 10:04:44;;;;;;;;;;;;;;;17.66;59.34;97118.25;5036447;28;20364;-64
2021/06/06 10:07:14;;;;;;;;;;;;;;;17.60;59.45;97111.97;5039497;28;19929;-64
2021/06/06 10:09:47;;;;;;;;;;;;;;;17.60;59.54;97111.97;5041751;28;20006;-66
2021/06/06 10:12:26;;;;;;;;;;;;;;;17.59;59.45;97115.63;5039699;28;20434;-66
2021/06/06 10:14:56;;;;;;;;;;;;;;;17.59;59.49;97118.25;5039201;28;20370;-65
2021/06/06 10:17:36;;;;;;;;;;;;;;;17.60;59.55;97121.69;5036710;28;19925;-63
2021/06/06 10:20:35;;;;;;;;;;;;;;;17.59;59.47;97120.03;5034945;28;20020;-65
2021/06/06 10:23:15;;;;;;;;;;;;;;;17.59;59.49;97120.03;5041912;28;19942;-64
2021/06/06 10:25:44;;;;;;;;;;;;;;;17.62;59.07;97124.94;5054650;28;19924;-64
2021/06/06 10:28:13;;;;;;;;;;;;;;;17.72;58.95;97129.81;5044277;28;19937;-62
2021/06/06 10:30:46;;;;;;;;;;;;;;;17.74;58.90;97122.47;5049465;28;19968;-63
2021/06/06 10:33:20;;;;;;;;;;;;;;;17.84;59.19;97121.13;5050841;28;20009;-67
2021/06/06 10:35:47;;;;;;;;;;;;;;;18.11;57.94;97119.25;5040964;28;19929;-66
2021/06/06 10:38:15;;;;;;;;;;;;;;;18.18;58.09;97129.78;5040259;28;19983;-66
2021/06/06 10:40:43;;;;;;;;;;;;;;;18.17;58.33;97127.34;5047590;28;20054;-64
2021/06/06 10:43:09;;;;;;;;;;;;;;;17.93;58.93;97129.63;5040022;28;19925;-63
2021/06/06 10:45:38;;;;;;;;;;;;;;;17.82;59.34;97125.78;5043901;28;19994;-63
2021/06/06 10:48:11;;;;;;;;;;;;;;;17.80;59.28;97121.66;5035131;28;19929;-63
2021/06/06 10:50:43;;;;;;;;;;;;;;;17.79;59.10;97125.34;5038103;28;19925;-62
2021/06/06 10:53:12;;;;;;;;;;;;;;;17.79;59.04;97120.06;5036468;28;19972;-62
2021/06/06 10:55:56;;;;;;;;;;;;;;;17.77;59.16;97114.19;5038646;28;19929;-61
2021/06/06 10:58:34;;;;;;;;;;;;;;;17.78;59.07;97118.44;5036645;28;19937;-61
2021/06/06 11:01:05;;;;;;;;;;;;;;;17.78;59.15;97119.25;5039099;28;20301;-61
2021/06/06 11:03:35;;;;;;;;;;;;;;;17.76;58.92;97123.09;5042847;28;19929;-61
2021/06/06 11:06:04;;;;;;;;;;;;;;;17.75;59.18;97122.28;5041835;28;19929;-61
2021/06/06 11:08:31;;;;;;;;;;;;;;;17.74;59.02;97118.03;5042166;28;19929;-60
2021/06/06 11:11:17;;;;;;;;;;;;;;;17.75;59.13;97124.91;5042066;28;20289;-62
2021/06/06 11:13:51;;;;;;;;;;;;;;;17.75;59.02;97118.84;5049129;28;19925;-61
2021/06/06 11:16:17;;;;;;;;;;;;;;;17.76;58.94;97117.81;5044424;28;19968;-60
2021/06/06 11:18:46;;;;;;;;;;;;;;;17.73;59.05;97105.88;5042336;28;19932;-60
2021/06/06 11:21:13;;;;;;;;;;;;;;;17.72;59.05;97106.09;5050942;28;20024;-62
2021/06/06 11:23:42;;;;;;;;;;;;;;;17.71;59.00;97107.91;5043875;28;20446;-62
2021/06/06 11:26:15;;;;;;;;;;;;;;;17.71;59.00;97107.91;5035948;28;20294;-62
2021/06/06 11:28:42;;;;;;;;;;;;;;;17.72;58.98;97109.53;5046175;28;19928;-61
2021/06/06 11:31:29;;;;;;;;;;;;;;;17.71;59.17;97105.28;5046079;28;20381;-61
2021/06/06 11:34:05;;;;;;;;;;;;;;;17.71;58.92;97102.63;5041565;28;20329;-60
2021/06/06 11:36:34;;;;;;;;;;;;;;;17.68;59.08;97098.59;5035691;28;19929;-60
2021/06/06 11:39:12;;;;;;;;;;;;;;;17.69;59.07;97096.75;5041877;28;19926;-61
2021/06/06 11:41:42;;;;;;;;;;;;;;;17.64;59.07;97086.84;5037478;28;19925;-60
2021/06/06 11:44:21;;;;;;;;;;;;;;;17.59;59.39;97089.28;5034496;28;19924;-60
2021/06/06 11:46:53;;;;;;;;;;;;;;;17.55;59.72;97082.81;5048523;28;19987;-61
2021/06/06 11:49:27;;;;;;;;;;;;;;;17.56;59.52;97073.88;5038248;28;19971;-60
2021/06/06 11:51:56;;;;;;;;;;;;;;;17.51;59.43;97068.44;5043935;28;19932;-61
2021/06/06 11:54:31;;;;;;;;;;;;;;;17.52;59.50;97071.88;5042493;28;19937;-61
2021/06/06 11:57:05;;;;;;;;;;;;;;;17.53;59.52;97071.69;5032741;28;19925;-61
2021/06/06 11:59:37;;;;;;;;;;;;;;;17.53;59.57;97069.03;5032448;28;19983;-60
2021/06/06 12:02:12;;;;;;;;;;;;;;;17.57;59.58;97072.88;5034116;28;20270;-61
2021/06/06 12:04:39;;;;;;;;;;;;;;;17.56;59.36;97062.56;5038421;28;19960;-60
2021/06/06 12:07:14;;;;;;;;;;;;;;;17.54;59.52;97070.66;5033535;28;19936;-60
2021/06/06 12:09:42;;;;;;;;;;;;;;;17.51;59.79;97071.06;5031506;28;19928;-61
2021/06/06 12:12:13;;;;;;;;;;;;;;;17.49;59.78;97067.81;5037425;28;19983;-61
2021/06/06 12:14:41;;;;;;;;;;;;;;;17.52;59.52;97070.03;5042183;28;20372;-61
2021/06/06 12:17:20;;;;;;;;;;;;;;;17.51;59.63;97073.69;5040572;28;19929;-61
2021/06/06 12:19:49;;;;;;;;;;;;;;;17.51;59.49;97071.06;5037430;28;20292;-61
2021/06/06 12:22:19;;;;;;;;;;;;;;;17.52;59.59;97064.78;5052035;28;20400;-61
2021/06/06 12:24:58;;;;;;;;;;;;;;;17.52;59.60;97063.97;5048676;28;20393;-61
2021/06/06 12:27:26;;;;;;;;;;;;;;;17.50;59.94;97064.16;5039754;28;19933;-60
2021/06/06 12:30:03;;;;;;;;;;;;;;;17.49;59.82;97057.28;5046409;28;19933;-61
2021/06/06 12:32:32;;;;;;;;;;;;;;;17.50;59.65;97064.16;5043918;28;20392;-60
2021/06/06 12:35:10;;;;;;;;;;;;;;;17.48;59.64;97066.19;5045125;28;20044;-60
2021/06/06 12:37:37;;;;;;;;;;;;;;;17.48;59.76;97071.44;5046137;28;19936;-60
2021/06/06 12:40:04;;;;;;;;;;;;;;;17.49;59.62;97059.94;5043233;28;20446;-61
2021/06/06 12:42:30;;;;;;;;;;;;;;;17.46;59.84;97062.94;5043210;28;20373;-62
2021/06/06 12:44:59;;;;;;;;;;;;;;;17.46;59.90;97058.53;5039390;28;19929;-60
2021/06/06 12:47:25;;;;;;;;;;;;;;;17.45;59.94;97063.97;5038947;28;19937;-61
2021/06/06 12:49:54;;;;;;;;;;;;;;;17.47;59.72;97060.13;5040192;28;19928;-60
2021/06/06 12:52:21;;;;;;;;;;;;;;;17.49;59.92;97059.94;5043286;28;19924;-61
2021/06/06 12:54:48;;;;;;;;;;;;;;;17.54;59.55;97054.06;5042732;28;19925;-61
2021/06/06 12:57:17;;;;;;;;;;;;;;;17.59;59.30;97059.50;5039909;28;19929;-62
2021/06/06 12:59:44;;;;;;;;;;;;;;;17.63;59.30;97068.63;5038717;28;20527;-62
2021/06/06 13:02:22;;;;;;;;;;;;;;;17.61;59.22;97060.13;5041884;28;19959;-63
2021/06/06 13:05:02;;;;;;;;;;;;;;;17.62;59.00;97056.47;5040095;28;19929;-67
2021/06/06 13:07:32;;;;;;;;;;;;;;;17.62;59.19;97054.66;5043298;28;20017;-63
2021/06/06 13:09:59;;;;;;;;;;;;;;;17.64;59.11;97057.88;5040392;28;19925;-64